createdAt,value
2018-05-21T00:00:02.282Z,1.609344
2018-05-21T00:00:14.958Z,1.609344
2018-05-21T00:00:27.493Z,1.609344
2018-05-21T00:00:39.908Z,1.609344
2018-05-21T00:00:52.326Z,1.609344
2018-05-21T00:01:04.743Z,1.609344
2018-05-21T00:01:17.172Z,1.609344
2018-05-21T00:01:29.648Z,1.609344
2018-05-21T00:01:42.061Z,1.609344
2018-05-21T00:01:54.483Z,1.609344
2018-05-21T00:02:06.893Z,3.218688
2018-05-21T00:02:19.303Z,3.218688
2018-05-21T00:02:31.722Z,4.828032
2018-05-21T00:02:44.130Z,4.828032
2018-05-21T00:02:56.534Z,4.828032
2018-05-21T00:03:08.943Z,6.437376
2018-05-21T00:03:21.349Z,8.04672
2018-05-21T00:03:33.753Z,8.04672
2018-05-21T00:03:46.152Z,8.04672
2018-05-21T00:03:58.665Z,8.04672
2018-05-21T00:04:11.088Z,4.828032
2018-05-21T00:04:23.500Z,4.828032
2018-05-21T00:04:35.903Z,4.828032
2018-05-21T00:04:48.316Z,6.437376
2018-05-21T00:05:00.723Z,8.04672
2018-05-21T00:05:13.131Z,8.04672
2018-05-21T00:05:25.566Z,8.04672
2018-05-21T00:05:37.958Z,8.04672
2018-05-21T00:05:50.392Z,8.04672
2018-05-21T00:06:02.815Z,8.04672
2018-05-21T00:06:15.325Z,4.828032
2018-05-21T00:06:27.729Z,4.828032
2018-05-21T00:06:40.203Z,4.828032
2018-05-21T00:06:52.642Z,4.828032
2018-05-21T00:07:05.064Z,1.609344
2018-05-21T00:07:17.470Z,3.218688
2018-05-21T00:07:29.877Z,8.04672
2018-05-21T00:07:42.291Z,8.04672
2018-05-21T00:07:54.694Z,8.04672
2018-05-21T00:08:07.104Z,3.218688
2018-05-21T00:08:19.507Z,6.437376
2018-05-21T00:08:31.922Z,6.437376
2018-05-21T00:08:44.334Z,6.437376
2018-05-21T00:08:56.754Z,6.437376
2018-05-21T00:09:09.169Z,3.218688
2018-05-21T00:09:21.583Z,3.218688
2018-05-21T00:09:34.013Z,3.218688
2018-05-21T00:09:46.426Z,3.218688
2018-05-21T00:09:58.908Z,3.218688
2018-05-21T00:10:11.308Z,1.609344
2018-05-21T00:10:23.756Z,1.609344
2018-05-21T00:10:36.237Z,1.609344
2018-05-21T00:10:48.646Z,1.609344
2018-05-21T00:11:01.040Z,1.609344
2018-05-21T00:11:13.443Z,0
2018-05-21T00:11:25.833Z,0
2018-05-21T00:11:38.241Z,4.828032
2018-05-21T00:11:50.667Z,8.04672
2018-05-21T00:12:03.151Z,8.04672
2018-05-21T00:12:15.572Z,3.218688
2018-05-21T00:12:27.986Z,8.04672
2018-05-21T00:12:40.404Z,8.04672
2018-05-21T00:12:52.825Z,8.04672
2018-05-21T00:13:05.231Z,6.437376
2018-05-21T00:13:17.635Z,6.437376
2018-05-21T00:13:30.045Z,6.437376
2018-05-21T00:13:42.435Z,6.437376
2018-05-21T00:13:54.837Z,6.437376
2018-05-21T00:14:07.252Z,1.609344
2018-05-21T00:14:19.743Z,6.437376
2018-05-21T00:14:32.159Z,6.437376
2018-05-21T00:14:44.559Z,6.437376
2018-05-21T00:14:56.984Z,6.437376
2018-05-21T00:15:09.400Z,0
2018-05-21T00:15:21.891Z,1.609344
2018-05-21T00:15:34.395Z,3.218688
2018-05-21T00:15:46.982Z,6.437376
2018-05-21T00:15:59.393Z,6.437376
2018-05-21T00:16:11.890Z,4.828032
2018-05-21T00:16:24.293Z,6.437376
2018-05-21T00:16:36.702Z,6.437376
2018-05-21T00:16:49.921Z,6.437376
2018-05-21T00:17:02.560Z,6.437376
2018-05-21T00:17:14.987Z,3.218688
2018-05-21T00:17:27.406Z,3.218688
2018-05-21T00:17:39.808Z,3.218688
2018-05-21T00:17:52.307Z,3.218688
2018-05-21T00:18:04.725Z,0
2018-05-21T00:18:17.226Z,1.609344
2018-05-21T00:18:29.636Z,1.609344
2018-05-21T00:18:42.033Z,1.609344
2018-05-21T00:18:54.425Z,1.609344
2018-05-21T00:19:06.841Z,0
2018-05-21T00:19:19.239Z,1.609344
2018-05-21T00:19:31.670Z,4.828032
2018-05-21T00:19:44.097Z,4.828032
2018-05-21T00:19:56.503Z,4.828032
2018-05-21T00:20:08.914Z,1.609344
2018-05-21T00:20:21.331Z,1.609344
2018-05-21T00:20:33.755Z,1.609344
2018-05-21T00:20:46.170Z,1.609344
2018-05-21T00:20:58.625Z,1.609344
2018-05-21T00:21:11.022Z,3.218688
2018-05-21T00:21:23.429Z,6.437376
2018-05-21T00:21:35.834Z,6.437376
2018-05-21T00:21:48.242Z,6.437376
2018-05-21T00:22:00.644Z,6.437376
2018-05-21T00:22:13.051Z,3.218688
2018-05-21T00:22:25.458Z,3.218688
2018-05-21T00:22:37.851Z,8.04672
2018-05-21T00:22:50.257Z,8.04672
2018-05-21T00:23:02.680Z,8.04672
2018-05-21T00:23:15.122Z,1.609344
2018-05-21T00:23:27.525Z,1.609344
2018-05-21T00:23:39.960Z,1.609344
2018-05-21T00:23:52.391Z,1.609344
2018-05-21T00:24:04.903Z,0
2018-05-21T00:24:17.313Z,0
2018-05-21T00:24:29.716Z,0
2018-05-21T00:24:42.108Z,0
2018-05-21T00:24:54.647Z,0
2018-05-21T00:25:07.059Z,0
2018-05-21T00:25:19.462Z,0
2018-05-21T00:25:31.873Z,1.609344
2018-05-21T00:25:44.275Z,1.609344
2018-05-21T00:25:56.664Z,1.609344
2018-05-21T00:26:09.081Z,1.609344
2018-05-21T00:26:21.496Z,1.609344
2018-05-21T00:26:33.897Z,3.218688
2018-05-21T00:26:46.304Z,3.218688
2018-05-21T00:26:58.707Z,3.218688
2018-05-21T00:27:11.127Z,1.609344
2018-05-21T00:27:23.606Z,1.609344
2018-05-21T00:27:36.115Z,1.609344
2018-05-21T00:27:48.532Z,1.609344
2018-05-21T00:28:00.930Z,3.218688
2018-05-21T00:28:13.424Z,3.218688
2018-05-21T00:28:25.831Z,3.218688
2018-05-21T00:28:38.222Z,3.218688
2018-05-21T00:28:50.619Z,3.218688
2018-05-21T00:29:03.020Z,3.218688
2018-05-21T00:29:15.421Z,1.609344
2018-05-21T00:29:27.885Z,1.609344
2018-05-21T00:29:40.311Z,1.609344
2018-05-21T00:29:52.726Z,6.437376
2018-05-21T00:30:05.132Z,8.04672
2018-05-21T00:30:17.708Z,8.04672
2018-05-21T00:30:30.129Z,8.04672
2018-05-21T00:30:42.662Z,8.04672
2018-05-21T00:30:55.069Z,8.04672
2018-05-21T00:31:07.594Z,6.437376
2018-05-21T00:31:19.993Z,6.437376
2018-05-21T00:31:32.398Z,6.437376
2018-05-21T00:31:44.799Z,6.437376
2018-05-21T00:31:57.200Z,6.437376
2018-05-21T00:32:09.600Z,3.218688
2018-05-21T00:32:22.007Z,3.218688
2018-05-21T00:32:34.414Z,3.218688
2018-05-21T00:32:46.840Z,3.218688
2018-05-21T00:32:59.249Z,3.218688
2018-05-21T00:33:11.656Z,1.609344
2018-05-21T00:33:24.050Z,1.609344
2018-05-21T00:33:36.458Z,1.609344
2018-05-21T00:33:48.866Z,1.609344
2018-05-21T00:34:01.279Z,3.218688
2018-05-21T00:34:13.714Z,3.218688
2018-05-21T00:34:26.132Z,6.437376
2018-05-21T00:34:38.532Z,6.437376
2018-05-21T00:34:50.957Z,6.437376
2018-05-21T00:35:03.445Z,6.437376
2018-05-21T00:35:15.857Z,1.609344
2018-05-21T00:35:28.280Z,1.609344
2018-05-21T00:35:40.700Z,1.609344
2018-05-21T00:35:53.120Z,1.609344
2018-05-21T00:36:05.545Z,1.609344
2018-05-21T00:36:18.059Z,3.218688
2018-05-21T00:36:30.453Z,3.218688
2018-05-21T00:36:42.869Z,3.218688
2018-05-21T00:36:55.272Z,4.828032
2018-05-21T00:37:07.663Z,1.609344
2018-05-21T00:37:20.103Z,3.218688
2018-05-21T00:37:32.525Z,3.218688
2018-05-21T00:37:44.920Z,3.218688
2018-05-21T00:37:57.329Z,3.218688
2018-05-21T00:38:09.744Z,6.437376
2018-05-21T00:38:22.147Z,9.656064
2018-05-21T00:38:34.558Z,9.656064
2018-05-21T00:38:46.965Z,9.656064
2018-05-21T00:38:59.379Z,9.656064
2018-05-21T00:39:11.865Z,3.218688
2018-05-21T00:39:24.269Z,3.218688
2018-05-21T00:39:36.666Z,3.218688
2018-05-21T00:39:49.083Z,3.218688
2018-05-21T00:40:01.553Z,3.218688
2018-05-21T00:40:13.954Z,1.609344
2018-05-21T00:40:26.359Z,1.609344
2018-05-21T00:40:38.781Z,1.609344
2018-05-21T00:40:51.255Z,1.609344
2018-05-21T00:41:03.672Z,1.609344
2018-05-21T00:41:16.154Z,1.609344
2018-05-21T00:41:28.560Z,1.609344
2018-05-21T00:41:41.051Z,1.609344
2018-05-21T00:41:53.451Z,1.609344
2018-05-21T00:42:05.953Z,1.609344
2018-05-21T00:42:18.385Z,1.609344
2018-05-21T00:42:30.792Z,1.609344
2018-05-21T00:42:43.192Z,3.218688
2018-05-21T00:42:55.673Z,3.218688
2018-05-21T00:43:08.098Z,1.609344
2018-05-21T00:43:20.513Z,3.218688
2018-05-21T00:43:32.915Z,3.218688
2018-05-21T00:43:45.371Z,3.218688
2018-05-21T00:43:57.980Z,3.218688
2018-05-21T00:44:10.377Z,1.609344
2018-05-21T00:44:22.766Z,1.609344
2018-05-21T00:44:35.214Z,1.609344
2018-05-21T00:44:47.616Z,1.609344
2018-05-21T00:45:00.024Z,1.609344
2018-05-21T00:45:12.437Z,1.609344
2018-05-21T00:45:25.178Z,1.609344
2018-05-21T00:45:37.589Z,1.609344
2018-05-21T00:45:49.995Z,1.609344
2018-05-21T00:46:02.415Z,1.609344
2018-05-21T00:46:14.833Z,1.609344
2018-05-21T00:46:27.233Z,1.609344
2018-05-21T00:46:39.653Z,1.609344
2018-05-21T00:46:52.060Z,1.609344
2018-05-21T00:47:04.577Z,0
2018-05-21T00:47:17.017Z,1.609344
2018-05-21T00:47:29.504Z,1.609344
2018-05-21T00:47:41.913Z,1.609344
2018-05-21T00:47:54.354Z,1.609344
2018-05-21T00:48:06.755Z,1.609344
2018-05-21T00:48:19.310Z,1.609344
2018-05-21T00:48:31.730Z,1.609344
2018-05-21T00:48:44.143Z,1.609344
2018-05-21T00:48:56.552Z,1.609344
2018-05-21T00:49:09.046Z,3.218688
2018-05-21T00:49:21.528Z,4.828032
2018-05-21T00:49:33.929Z,6.437376
2018-05-21T00:49:46.408Z,6.437376
2018-05-21T00:49:58.816Z,6.437376
2018-05-21T00:50:11.240Z,3.218688
2018-05-21T00:50:24.220Z,4.828032
2018-05-21T00:50:36.887Z,4.828032
2018-05-21T00:50:49.293Z,4.828032
2018-05-21T00:51:01.720Z,4.828032
2018-05-21T00:51:14.135Z,1.609344
2018-05-21T00:51:26.616Z,1.609344
2018-05-21T00:51:39.021Z,1.609344
2018-05-21T00:51:51.466Z,1.609344
2018-05-21T00:52:03.869Z,1.609344
2018-05-21T00:52:16.289Z,3.218688
2018-05-21T00:52:28.693Z,3.218688
2018-05-21T00:52:41.105Z,3.218688
2018-05-21T00:52:53.506Z,3.218688
2018-05-21T00:53:05.914Z,1.609344
2018-05-21T00:53:18.312Z,3.218688
2018-05-21T00:53:30.719Z,3.218688
2018-05-21T00:53:43.114Z,3.218688
2018-05-21T00:53:55.538Z,3.218688
2018-05-21T00:54:08.028Z,1.609344
2018-05-21T00:54:20.453Z,1.609344
2018-05-21T00:54:32.868Z,1.609344
2018-05-21T00:54:45.271Z,1.609344
2018-05-21T00:54:57.690Z,1.609344
2018-05-21T00:55:10.091Z,1.609344
2018-05-21T00:55:22.496Z,1.609344
2018-05-21T00:55:34.901Z,4.828032
2018-05-21T00:55:47.320Z,4.828032
2018-05-21T00:55:59.739Z,4.828032
2018-05-21T00:56:12.236Z,3.218688
2018-05-21T00:56:24.630Z,3.218688
2018-05-21T00:56:37.044Z,3.218688
2018-05-21T00:56:49.443Z,3.218688
2018-05-21T00:57:01.850Z,3.218688
2018-05-21T00:57:14.264Z,1.609344
2018-05-21T00:57:26.661Z,1.609344
2018-05-21T00:57:39.053Z,1.609344
2018-05-21T00:57:56.515Z,1.609344
2018-05-21T00:58:08.904Z,0
2018-05-21T00:58:21.317Z,0
2018-05-21T00:58:33.735Z,0
2018-05-21T00:58:46.131Z,1.609344
2018-05-21T00:58:58.539Z,1.609344
2018-05-21T00:59:10.945Z,0
2018-05-21T00:59:23.334Z,1.609344
2018-05-21T00:59:35.741Z,1.609344
2018-05-21T00:59:48.145Z,1.609344
2018-05-21T01:00:00.553Z,1.609344
2018-05-21T01:00:13.009Z,1.609344
2018-05-21T01:00:25.599Z,1.609344
2018-05-21T01:00:38.045Z,1.609344
2018-05-21T01:00:50.554Z,1.609344
2018-05-21T01:01:02.987Z,1.609344
2018-05-21T01:01:15.396Z,1.609344
2018-05-21T01:01:27.806Z,1.609344
2018-05-21T01:01:40.229Z,1.609344
2018-05-21T01:01:52.641Z,1.609344
2018-05-21T01:02:05.053Z,1.609344
2018-05-21T01:02:17.487Z,1.609344
2018-05-21T01:02:29.891Z,3.218688
2018-05-21T01:02:42.312Z,3.218688
2018-05-21T01:02:54.738Z,3.218688
2018-05-21T01:03:07.161Z,0
2018-05-21T01:03:19.585Z,1.609344
2018-05-21T01:03:32.044Z,1.609344
2018-05-21T01:03:44.546Z,1.609344
2018-05-21T01:03:56.959Z,1.609344
2018-05-21T01:04:09.371Z,1.609344
2018-05-21T01:04:21.780Z,1.609344
2018-05-21T01:04:34.251Z,1.609344
2018-05-21T01:04:46.749Z,1.609344
2018-05-21T01:04:59.173Z,1.609344
2018-05-21T01:05:11.613Z,1.609344
2018-05-21T01:05:24.103Z,3.218688
2018-05-21T01:05:36.527Z,3.218688
2018-05-21T01:05:48.927Z,3.218688
2018-05-21T01:06:01.327Z,3.218688
2018-05-21T01:06:13.730Z,3.218688
2018-05-21T01:06:26.134Z,3.218688
2018-05-21T01:06:38.546Z,3.218688
2018-05-21T01:06:50.950Z,3.218688
2018-05-21T01:07:03.386Z,3.218688
2018-05-21T01:07:15.784Z,3.218688
2018-05-21T01:07:28.188Z,3.218688
2018-05-21T01:07:40.602Z,3.218688
2018-05-21T01:07:53.004Z,3.218688
2018-05-21T01:08:05.420Z,3.218688
2018-05-21T01:08:17.829Z,3.218688
2018-05-21T01:08:30.233Z,3.218688
2018-05-21T01:08:42.634Z,3.218688
2018-05-21T01:08:55.029Z,3.218688
2018-05-21T01:09:07.437Z,1.609344
2018-05-21T01:09:19.822Z,3.218688
2018-05-21T01:09:32.239Z,3.218688
2018-05-21T01:09:44.635Z,3.218688
2018-05-21T01:09:57.027Z,3.218688
2018-05-21T01:10:09.434Z,1.609344
2018-05-21T01:10:22.020Z,1.609344
2018-05-21T01:10:34.421Z,3.218688
2018-05-21T01:10:46.817Z,3.218688
2018-05-21T01:10:59.236Z,4.828032
2018-05-21T01:11:11.674Z,4.828032
2018-05-21T01:11:24.083Z,4.828032
2018-05-21T01:11:36.483Z,4.828032
2018-05-21T01:11:48.886Z,4.828032
2018-05-21T01:12:01.446Z,4.828032
2018-05-21T01:12:13.848Z,1.609344
2018-05-21T01:12:26.341Z,1.609344
2018-05-21T01:12:38.756Z,4.828032
2018-05-21T01:12:51.151Z,6.437376
2018-05-21T01:13:03.560Z,6.437376
2018-05-21T01:13:15.965Z,1.609344
2018-05-21T01:13:28.398Z,3.218688
2018-05-21T01:13:40.807Z,3.218688
2018-05-21T01:13:53.212Z,3.218688
2018-05-21T01:14:05.613Z,1.609344
2018-05-21T01:14:18.116Z,3.218688
2018-05-21T01:14:30.520Z,3.218688
2018-05-21T01:14:42.907Z,3.218688
2018-05-21T01:14:55.302Z,3.218688
2018-05-21T01:15:07.701Z,3.218688
2018-05-21T01:15:20.118Z,3.218688
2018-05-21T01:15:32.533Z,3.218688
2018-05-21T01:15:45.840Z,3.218688
2018-05-21T01:15:58.739Z,3.218688
2018-05-21T01:16:11.137Z,1.609344
2018-05-21T01:16:23.552Z,3.218688
2018-05-21T01:16:36.034Z,4.828032
2018-05-21T01:16:48.427Z,4.828032
2018-05-21T01:17:00.836Z,4.828032
2018-05-21T01:17:13.244Z,0
2018-05-21T01:17:25.644Z,0
2018-05-21T01:17:38.056Z,0
2018-05-21T01:17:50.473Z,0
2018-05-21T01:18:02.891Z,0
2018-05-21T01:18:15.481Z,0
2018-05-21T01:18:27.895Z,0
2018-05-21T01:18:40.325Z,0
2018-05-21T01:18:52.742Z,0
2018-05-21T01:19:05.156Z,0
2018-05-21T01:19:17.578Z,0
2018-05-21T01:19:29.991Z,0
2018-05-21T01:19:42.404Z,0
2018-05-21T01:19:54.813Z,0
2018-05-21T01:20:07.224Z,0
2018-05-21T01:20:19.820Z,0
2018-05-21T01:20:32.239Z,3.218688
2018-05-21T01:20:44.651Z,3.218688
2018-05-21T01:20:57.055Z,3.218688
2018-05-21T01:21:09.458Z,1.609344
2018-05-21T01:21:21.888Z,3.218688
2018-05-21T01:21:34.294Z,3.218688
2018-05-21T01:21:46.707Z,3.218688
2018-05-21T01:21:59.122Z,3.218688
2018-05-21T01:22:11.540Z,1.609344
2018-05-21T01:22:23.940Z,6.437376
2018-05-21T01:22:36.360Z,6.437376
2018-05-21T01:22:48.831Z,6.437376
2018-05-21T01:23:01.263Z,6.437376
2018-05-21T01:23:13.719Z,1.609344
2018-05-21T01:23:26.129Z,1.609344
2018-05-21T01:23:38.539Z,1.609344
2018-05-21T01:23:50.931Z,3.218688
2018-05-21T01:24:03.419Z,3.218688
2018-05-21T01:24:15.822Z,3.218688
2018-05-21T01:24:28.233Z,3.218688
2018-05-21T01:24:40.648Z,4.828032
2018-05-21T01:24:53.222Z,4.828032
2018-05-21T01:25:05.639Z,1.609344
2018-05-21T01:25:18.039Z,1.609344
2018-05-21T01:25:30.434Z,3.218688
2018-05-21T01:25:42.940Z,3.218688
2018-05-21T01:25:55.351Z,3.218688
2018-05-21T01:26:07.841Z,1.609344
2018-05-21T01:26:20.266Z,1.609344
2018-05-21T01:26:32.754Z,3.218688
2018-05-21T01:26:45.145Z,3.218688
2018-05-21T01:26:57.553Z,3.218688
2018-05-21T01:27:09.960Z,1.609344
2018-05-21T01:27:22.356Z,3.218688
2018-05-21T01:27:34.760Z,3.218688
2018-05-21T01:27:47.271Z,6.437376
2018-05-21T01:27:59.674Z,6.437376
2018-05-21T01:28:12.069Z,4.828032
2018-05-21T01:28:24.465Z,4.828032
2018-05-21T01:28:36.866Z,6.437376
2018-05-21T01:28:49.370Z,6.437376
2018-05-21T01:29:01.773Z,6.437376
2018-05-21T01:29:14.182Z,3.218688
2018-05-21T01:29:26.580Z,4.828032
2018-05-21T01:29:38.980Z,4.828032
2018-05-21T01:29:51.414Z,4.828032
2018-05-21T01:30:03.818Z,6.437376
2018-05-21T01:30:16.294Z,4.828032
2018-05-21T01:30:28.695Z,4.828032
2018-05-21T01:30:41.100Z,6.437376
2018-05-21T01:30:53.499Z,6.437376
2018-05-21T01:31:05.912Z,3.218688
2018-05-21T01:31:18.457Z,3.218688
2018-05-21T01:31:30.857Z,6.437376
2018-05-21T01:31:43.335Z,6.437376
2018-05-21T01:31:55.741Z,6.437376
2018-05-21T01:32:08.147Z,3.218688
2018-05-21T01:32:20.547Z,4.828032
2018-05-21T01:32:33.039Z,4.828032
2018-05-21T01:32:45.450Z,4.828032
2018-05-21T01:32:57.840Z,4.828032
2018-05-21T01:33:10.278Z,4.828032
2018-05-21T01:33:22.673Z,4.828032
2018-05-21T01:33:35.072Z,4.828032
2018-05-21T01:33:47.588Z,4.828032
2018-05-21T01:33:59.976Z,4.828032
2018-05-21T01:34:12.404Z,1.609344
2018-05-21T01:34:24.880Z,1.609344
2018-05-21T01:34:37.289Z,1.609344
2018-05-21T01:34:49.696Z,8.04672
2018-05-21T01:35:02.090Z,8.04672
2018-05-21T01:35:14.484Z,3.218688
2018-05-21T01:35:26.890Z,6.437376
2018-05-21T01:35:39.297Z,6.437376
2018-05-21T01:35:51.712Z,6.437376
2018-05-21T01:36:04.202Z,8.04672
2018-05-21T01:36:16.746Z,8.04672
2018-05-21T01:36:29.147Z,8.04672
2018-05-21T01:36:41.544Z,8.04672
2018-05-21T01:36:53.948Z,8.04672
2018-05-21T01:37:06.359Z,3.218688
2018-05-21T01:37:18.761Z,4.828032
2018-05-21T01:37:31.183Z,4.828032
2018-05-21T01:37:43.588Z,8.04672
2018-05-21T01:37:56.003Z,8.04672
2018-05-21T01:38:08.405Z,9.656064
2018-05-21T01:38:20.794Z,9.656064
2018-05-21T01:38:33.186Z,9.656064
2018-05-21T01:38:45.667Z,9.656064
2018-05-21T01:38:58.067Z,9.656064
2018-05-21T01:39:10.540Z,4.828032
2018-05-21T01:39:22.941Z,8.04672
2018-05-21T01:39:35.337Z,8.04672
2018-05-21T01:39:47.737Z,8.04672
2018-05-21T01:40:00.158Z,8.04672
2018-05-21T01:40:12.659Z,1.609344
2018-05-21T01:40:25.243Z,1.609344
2018-05-21T01:40:37.662Z,3.218688
2018-05-21T01:40:50.058Z,6.437376
2018-05-21T01:41:02.459Z,6.437376
2018-05-21T01:41:14.967Z,3.218688
2018-05-21T01:41:27.374Z,3.218688
2018-05-21T01:41:39.773Z,6.437376
2018-05-21T01:41:52.170Z,9.656064
2018-05-21T01:42:04.565Z,1.609344
2018-05-21T01:42:16.962Z,1.609344
2018-05-21T01:42:29.370Z,4.828032
2018-05-21T01:42:41.778Z,8.04672
2018-05-21T01:42:54.180Z,8.04672
2018-05-21T01:43:06.576Z,3.218688
2018-05-21T01:43:18.975Z,3.218688
2018-05-21T01:43:31.371Z,9.656064
2018-05-21T01:43:43.756Z,9.656064
2018-05-21T01:43:56.150Z,9.656064
2018-05-21T01:44:08.555Z,3.218688
2018-05-21T01:44:20.944Z,4.828032
2018-05-21T01:44:33.438Z,12.874752
2018-05-21T01:44:45.839Z,12.874752
2018-05-21T01:44:58.272Z,12.874752
2018-05-21T01:45:10.711Z,6.437376
2018-05-21T01:45:23.394Z,6.437376
2018-05-21T01:45:35.798Z,6.437376
2018-05-21T01:45:48.206Z,6.437376
2018-05-21T01:46:00.603Z,9.656064
2018-05-21T01:46:13.013Z,4.828032
2018-05-21T01:46:25.435Z,4.828032
2018-05-21T01:46:37.832Z,4.828032
2018-05-21T01:46:50.243Z,4.828032
2018-05-21T01:47:02.652Z,4.828032
2018-05-21T01:47:15.063Z,4.828032
2018-05-21T01:47:27.493Z,4.828032
2018-05-21T01:47:39.895Z,8.04672
2018-05-21T01:47:52.326Z,12.874752
2018-05-21T01:48:04.743Z,6.437376
2018-05-21T01:48:17.389Z,8.04672
2018-05-21T01:48:29.806Z,8.04672
2018-05-21T01:48:42.212Z,8.04672
2018-05-21T01:48:54.630Z,8.04672
2018-05-21T01:49:07.197Z,3.218688
2018-05-21T01:49:19.635Z,3.218688
2018-05-21T01:49:32.057Z,6.437376
2018-05-21T01:49:44.471Z,8.04672
2018-05-21T01:49:56.893Z,8.04672
2018-05-21T01:50:09.361Z,3.218688
2018-05-21T01:50:21.796Z,3.218688
2018-05-21T01:50:34.193Z,3.218688
2018-05-21T01:50:46.614Z,9.656064
2018-05-21T01:50:59.020Z,11.265408
2018-05-21T01:51:11.439Z,8.04672
2018-05-21T01:51:23.851Z,8.04672
2018-05-21T01:51:36.255Z,17.702784
2018-05-21T01:51:48.658Z,17.702784
2018-05-21T01:52:01.068Z,17.702784
2018-05-21T01:52:13.498Z,8.04672
2018-05-21T01:52:25.923Z,8.04672
2018-05-21T01:52:38.334Z,8.04672
2018-05-21T01:52:50.742Z,8.04672
2018-05-21T01:53:03.143Z,8.04672
2018-05-21T01:53:15.553Z,6.437376
2018-05-21T01:53:27.944Z,6.437376
2018-05-21T01:53:40.338Z,6.437376
2018-05-21T01:53:52.742Z,6.437376
2018-05-21T01:54:05.135Z,3.218688
2018-05-21T01:54:17.561Z,4.828032
2018-05-21T01:54:30.039Z,8.04672
2018-05-21T01:54:42.511Z,8.04672
2018-05-21T01:54:54.923Z,8.04672
2018-05-21T01:55:07.343Z,9.656064
2018-05-21T01:55:19.746Z,9.656064
2018-05-21T01:55:32.150Z,9.656064
2018-05-21T01:55:44.561Z,11.265408
2018-05-21T01:55:56.961Z,11.265408
2018-05-21T01:56:09.380Z,8.04672
2018-05-21T01:56:21.787Z,9.656064
2018-05-21T01:56:34.190Z,9.656064
2018-05-21T01:56:46.607Z,9.656064
2018-05-21T01:56:59.097Z,9.656064
2018-05-21T01:57:11.517Z,6.437376
2018-05-21T01:57:23.919Z,9.656064
2018-05-21T01:57:36.323Z,16.09344
2018-05-21T01:57:48.728Z,16.09344
2018-05-21T01:58:01.441Z,16.09344
2018-05-21T01:58:13.857Z,6.437376
2018-05-21T01:58:26.258Z,6.437376
2018-05-21T01:58:38.778Z,6.437376
2018-05-21T01:58:51.186Z,8.04672
2018-05-21T01:59:03.642Z,8.04672
2018-05-21T01:59:16.068Z,4.828032
2018-05-21T01:59:28.474Z,4.828032
2018-05-21T01:59:40.902Z,6.437376
2018-05-21T01:59:53.388Z,11.265408
2018-05-21T02:00:05.837Z,8.04672
2018-05-21T02:00:18.477Z,8.04672
2018-05-21T02:00:30.924Z,9.656064
2018-05-21T02:00:43.377Z,9.656064
2018-05-21T02:00:55.899Z,9.656064
2018-05-21T02:01:08.322Z,6.437376
2018-05-21T02:01:20.721Z,6.437376
2018-05-21T02:01:33.127Z,6.437376
2018-05-21T02:01:45.548Z,8.04672
2018-05-21T02:01:57.984Z,8.04672
2018-05-21T02:02:10.426Z,1.609344
2018-05-21T02:02:22.837Z,8.04672
2018-05-21T02:02:35.243Z,8.04672
2018-05-21T02:02:47.674Z,8.04672
2018-05-21T02:03:00.097Z,8.04672
2018-05-21T02:03:12.514Z,6.437376
2018-05-21T02:03:24.922Z,6.437376
2018-05-21T02:03:37.379Z,6.437376
2018-05-21T02:03:49.797Z,6.437376
2018-05-21T02:04:02.219Z,9.656064
2018-05-21T02:04:14.653Z,8.04672
2018-05-21T02:04:27.073Z,9.656064
2018-05-21T02:04:39.485Z,9.656064
2018-05-21T02:04:51.917Z,9.656064
2018-05-21T02:05:04.342Z,3.218688
2018-05-21T02:05:16.756Z,6.437376
2018-05-21T02:05:29.162Z,9.656064
2018-05-21T02:05:41.559Z,9.656064
2018-05-21T02:05:53.991Z,9.656064
2018-05-21T02:06:06.398Z,4.828032
2018-05-21T02:06:18.815Z,9.656064
2018-05-21T02:06:31.220Z,9.656064
2018-05-21T02:06:43.623Z,9.656064
2018-05-21T02:06:56.029Z,9.656064
2018-05-21T02:07:08.428Z,4.828032
2018-05-21T02:07:20.829Z,8.04672
2018-05-21T02:07:33.241Z,11.265408
2018-05-21T02:07:45.646Z,11.265408
2018-05-21T02:07:58.056Z,11.265408
2018-05-21T02:08:10.469Z,8.04672
2018-05-21T02:08:23.657Z,11.265408
2018-05-21T02:08:36.968Z,11.265408
2018-05-21T02:08:49.863Z,11.265408
2018-05-21T02:09:02.358Z,11.265408
2018-05-21T02:09:14.846Z,3.218688
2018-05-21T02:09:27.445Z,8.04672
2018-05-21T02:09:39.875Z,8.04672
2018-05-21T02:09:52.296Z,8.04672
2018-05-21T02:10:04.730Z,3.218688
2018-05-21T02:10:17.136Z,3.218688
2018-05-21T02:10:29.545Z,8.04672
2018-05-21T02:10:41.962Z,8.04672
2018-05-21T02:10:54.362Z,8.04672
2018-05-21T02:11:06.772Z,3.218688
2018-05-21T02:11:19.179Z,3.218688
2018-05-21T02:11:31.606Z,3.218688
2018-05-21T02:11:44.000Z,3.218688
2018-05-21T02:11:56.589Z,3.218688
2018-05-21T02:12:09.034Z,6.437376
2018-05-21T02:12:21.466Z,6.437376
2018-05-21T02:12:33.867Z,6.437376
2018-05-21T02:12:46.278Z,6.437376
2018-05-21T02:12:58.698Z,6.437376
2018-05-21T02:13:11.141Z,3.218688
2018-05-21T02:13:23.553Z,3.218688
2018-05-21T02:13:35.954Z,3.218688
2018-05-21T02:13:48.407Z,3.218688
2018-05-21T02:14:00.854Z,3.218688
2018-05-21T02:14:13.414Z,1.609344
2018-05-21T02:14:25.838Z,3.218688
2018-05-21T02:14:38.317Z,6.437376
2018-05-21T02:14:50.728Z,6.437376
2018-05-21T02:15:03.173Z,9.656064
2018-05-21T02:15:15.649Z,9.656064
2018-05-21T02:15:28.057Z,9.656064
2018-05-21T02:15:40.472Z,9.656064
2018-05-21T02:15:53.071Z,9.656064
2018-05-21T02:16:05.493Z,1.609344
2018-05-21T02:16:17.894Z,3.218688
2018-05-21T02:16:30.300Z,3.218688
2018-05-21T02:16:42.716Z,3.218688
2018-05-21T02:16:55.114Z,3.218688
2018-05-21T02:17:07.603Z,1.609344
2018-05-21T02:17:19.996Z,1.609344
2018-05-21T02:17:32.446Z,3.218688
2018-05-21T02:17:44.849Z,3.218688
2018-05-21T02:17:57.330Z,4.828032
2018-05-21T02:18:09.740Z,6.437376
2018-05-21T02:18:22.337Z,6.437376
2018-05-21T02:18:34.753Z,6.437376
2018-05-21T02:18:47.172Z,6.437376
2018-05-21T02:18:59.584Z,6.437376
2018-05-21T02:19:11.994Z,6.437376
2018-05-21T02:19:24.414Z,6.437376
2018-05-21T02:19:36.899Z,6.437376
2018-05-21T02:19:49.305Z,6.437376
2018-05-21T02:20:02.243Z,6.437376
2018-05-21T02:20:15.414Z,3.218688
2018-05-21T02:20:27.830Z,3.218688
2018-05-21T02:20:40.248Z,4.828032
2018-05-21T02:20:52.663Z,4.828032
2018-05-21T02:21:05.158Z,4.828032
2018-05-21T02:21:17.563Z,4.828032
2018-05-21T02:21:29.965Z,4.828032
2018-05-21T02:21:42.381Z,4.828032
2018-05-21T02:21:54.823Z,4.828032
2018-05-21T02:22:07.242Z,1.609344
2018-05-21T02:22:19.658Z,1.609344
2018-05-21T02:22:32.072Z,3.218688
2018-05-21T02:22:44.487Z,3.218688
2018-05-21T02:22:56.898Z,3.218688
2018-05-21T02:23:09.334Z,4.828032
2018-05-21T02:23:21.802Z,4.828032
2018-05-21T02:23:34.212Z,4.828032
2018-05-21T02:23:46.632Z,4.828032
2018-05-21T02:23:59.042Z,4.828032
2018-05-21T02:24:11.442Z,3.218688
2018-05-21T02:24:23.904Z,8.04672
2018-05-21T02:24:36.326Z,8.04672
2018-05-21T02:24:48.744Z,8.04672
2018-05-21T02:25:01.218Z,8.04672
2018-05-21T02:25:13.613Z,1.609344
2018-05-21T02:25:26.024Z,3.218688
2018-05-21T02:25:38.432Z,3.218688
2018-05-21T02:25:50.852Z,3.218688
2018-05-21T02:26:03.271Z,4.828032
2018-05-21T02:26:15.686Z,8.04672
2018-05-21T02:26:28.127Z,8.04672
2018-05-21T02:26:40.528Z,8.04672
2018-05-21T02:26:53.008Z,8.04672
2018-05-21T02:27:06.424Z,3.218688
2018-05-21T02:27:19.296Z,6.437376
2018-05-21T02:27:31.700Z,6.437376
2018-05-21T02:27:44.100Z,6.437376
2018-05-21T02:27:56.490Z,6.437376